Time;durP1;ratioP1;P1;durP2;ratioP2;P2;SDS_P1;SDS_P2;PMS_P1;PMS_P2;Temp;Humidity;BMP_temperature;BMP_pressure;BME280_temperature;BME280_humidity;BME280_pressure;Samples;Min_cycle;Max_cycle;Signal;HPM_P1;HPM_P2
2022/11/13 00:01:11;;;;;;;6.00;5.50;;;;;;;10.75;100.00;100985.78;5089925;28;20252;-51
2022/11/13 00:03:38;;;;;;;6.27;5.70;;;;;;;10.68;100.00;100980.63;5089712;28;20305;-51
2022/11/13 00:06:07;;;;;;;7.67;5.43;;;;;;;10.69;100.00;100991.00;5089744;28;20191;-52
2022/11/13 00:08:34;;;;;;;7.17;5.50;;;;;;;10.67;100.00;100984.97;5089799;28;20205;-53
2022/11/13 00:11:04;;;;;;;5.77;5.07;;;;;;;10.61;100.00;100984.97;5089846;28;20202;-51
2022/11/13 00:13:31;;;;;;;7.67;5.53;;;;;;;10.75;100.00;100992.69;5089483;28;20201;-52
2022/11/13 00:15:59;;;;;;;5.60;5.03;;;;;;;10.75;100.00;100990.09;5089694;28;20745;-51
2022/11/13 00:18:26;;;;;;;6.23;5.73;;;;;;;10.72;100.00;100979.75;5089701;28;20233;-49
2022/11/13 00:20:53;;;;;;;5.73;5.23;;;;;;;10.81;100.00;100972.75;5089925;28;20199;-51
2022/11/13 00:23:22;;;;;;;5.57;5.17;;;;;;;10.79;100.00;100976.22;5089596;28;20696;-51
2022/11/13 00:25:49;;;;;;;6.57;5.83;;;;;;;10.83;100.00;100981.41;5089445;28;20209;-50
2022/11/13 00:28:16;;;;;;;6.80;5.40;;;;;;;10.82;100.00;100978.81;5090089;28;20217;-52
2022/11/13 00:30:42;;;;;;;6.17;5.67;;;;;;;10.76;100.00;100979.69;5089649;28;20199;-51
2022/11/13 00:33:09;;;;;;;7.20;6.20;;;;;;;10.83;100.00;100975.34;5089429;28;20199;-52
2022/11/13 00:35:37;;;;;;;7.30;6.33;;;;;;;10.79;100.00;100977.09;5089365;28;20195;-52
2022/11/13 00:38:04;;;;;;;8.07;6.70;;;;;;;10.82;100.00;100976.22;5089474;28;20203;-53
2022/11/13 00:40:32;;;;;;;7.03;6.43;;;;;;;10.81;100.00;100977.09;5089233;28;20197;-51
2022/11/13 00:42:59;;;;;;;7.23;6.53;;;;;;;10.84;100.00;100975.31;5089493;28;20286;-50
2022/11/13 00:45:26;;;;;;;7.60;6.90;;;;;;;10.86;100.00;100981.38;5089382;28;20278;-51
2022/11/13 00:47:53;;;;;;;7.10;6.00;;;;;;;10.84;100.00;100979.66;5089431;28;20199;-51
2022/11/13 00:50:20;;;;;;;9.70;6.90;;;;;;;10.78;100.00;100971.91;5089435;28;20199;-51
2022/11/13 00:52:46;;;;;;;8.17;6.87;;;;;;;10.79;100.00;100979.69;5089407;28;20191;-50
2022/11/13 00:55:13;;;;;;;8.07;7.37;;;;;;;10.81;100.00;100977.09;5089194;28;20580;-51
2022/11/13 00:57:42;;;;;;;7.97;7.00;;;;;;;10.82;100.00;100976.22;5090249;28;20283;-51
2022/11/13 01:00:10;;;;;;;10.13;7.50;;;;;;;10.79;100.00;100974.50;5093638;28;20203;-50
2022/11/13 01:02:37;;;;;;;8.87;6.93;;;;;;;10.78;100.00;100983.16;5093478;28;20662;-50
2022/11/13 01:05:04;;;;;;;10.27;7.37;;;;;;;10.81;100.00;100983.16;5093061;28;20237;-50
2022/11/13 01:07:31;;;;;;;8.17;7.37;;;;;;;10.77;100.00;100984.03;5092957;28;20201;-50
2022/11/13 01:09:58;;;;;;;9.47;7.30;;;;;;;10.77;100.00;100983.16;5093129;28;20202;-51
2022/11/13 01:12:25;;;;;;;8.00;7.20;;;;;;;10.75;100.00;100977.97;5080097;28;20274;-51
2022/11/13 01:14:54;;;;;;;9.87;7.57;;;;;;;10.78;100.00;100972.78;5073068;28;20202;-51
2022/11/13 01:17:20;;;;;;;9.67;7.63;;;;;;;10.78;100.00;100972.78;5072814;28;20231;-51
2022/11/13 01:19:47;;;;;;;10.83;7.63;;;;;;;10.82;100.00;100974.50;5072781;28;20296;-52
2022/11/13 01:22:15;;;;;;;8.27;7.17;;;;;;;10.73;100.00;100969.31;5072643;28;20196;-52
2022/11/13 01:24:42;;;;;;;10.10;7.00;;;;;;;10.66;100.00;100969.38;5072393;28;20216;-52
2022/11/13 01:27:09;;;;;;;7.73;7.00;;;;;;;10.62;100.00;100975.47;5072462;28;20204;-51
2022/11/13 01:29:37;;;;;;;8.33;7.37;;;;;;;10.65;100.00;100975.44;5072431;28;20196;-51
2022/11/13 01:32:06;;;;;;;10.67;7.53;;;;;;;10.66;100.00;100972.84;5072377;28;20293;-50
2022/11/13 01:34:33;;;;;;;11.00;7.77;;;;;;;10.72;100.00;100967.59;5072356;28;20211;-51
2022/11/13 01:37:00;;;;;;;8.20;7.40;;;;;;;10.70;100.00;100968.50;5071847;28;20329;-53
2022/11/13 01:39:27;;;;;;;10.57;8.50;;;;;;;10.63;100.00;100972.84;5072141;28;20238;-53
2022/11/13 01:41:54;;;;;;;8.97;8.03;;;;;;;10.73;100.00;100965.88;5072809;28;20597;-52
2022/11/13 01:44:21;;;;;;;9.07;8.13;;;;;;;10.83;100.00;100967.56;5072443;28;20586;-52
2022/11/13 01:46:50;;;;;;;9.23;7.90;;;;;;;10.72;100.00;100946.00;5072231;28;20206;-52
2022/11/13 01:49:29;;;;;;;9.27;8.33;;;;;;;10.73;100.00;100961.53;5072182;28;20195;-51
2022/11/13 01:51:58;;;;;;;10.10;8.27;;;;;;;10.76;100.00;100964.13;5072416;28;20252;-52
2022/11/13 01:54:27;;;;;;;9.10;7.93;;;;;;;10.87;100.00;100962.31;5072233;28;20188;-50
2022/11/13 01:56:56;;;;;;;9.30;8.17;;;;;;;10.84;100.00;100959.72;5072115;28;20200;-51
2022/11/13 01:59:25;;;;;;;12.10;9.10;;;;;;;10.83;100.00;100964.97;5072284;28;20683;-52
2022/11/13 02:01:53;;;;;;;10.37;8.93;;;;;;;10.76;100.00;100953.72;5072019;28;20279;-52
2022/11/13 02:04:22;;;;;;;12.83;9.73;;;;;;;10.75;100.00;100954.59;5072267;28;20315;-52
2022/11/13 02:06:52;;;;;;;11.87;9.37;;;;;;;10.74;100.00;100960.66;5071872;28;20204;-51
2022/11/13 02:09:24;;;;;;;11.23;9.17;;;;;;;10.80;100.00;100954.59;5071015;28;20196;-51
2022/11/13 02:11:52;;;;;;;11.93;9.27;;;;;;;10.75;100.00;100952.00;5071878;28;20615;-52
2022/11/13 02:14:21;;;;;;;10.97;9.10;;;;;;;10.81;100.00;100958.91;5071708;28;20265;-51
2022/11/13 02:16:51;;;;;;;13.20;10.27;;;;;;;10.77;100.00;100950.25;5071905;28;20691;-51
2022/11/13 02:19:25;;;;;;;9.50;8.50;;;;;;;10.81;100.00;100962.38;5071773;28;20673;-52
2022/11/13 02:22:01;;;;;;;11.33;9.00;;;;;;;10.69;100.00;100944.28;5071662;28;20286;-51
2022/11/13 02:24:32;;;;;;;13.43;9.40;;;;;;;10.72;100.00;100952.00;5071482;28;20222;-51
2022/11/13 02:27:03;;;;;;;11.23;9.27;;;;;;;10.69;100.00;100954.66;5071345;28;20250;-52
2022/11/13 02:29:30;;;;;;;11.50;8.90;;;;;;;10.71;100.00;100946.84;5071397;28;20204;-52
2022/11/13 02:31:56;;;;;;;11.23;8.63;;;;;;;10.74;100.00;100942.50;5084288;28;20206;-52
2022/11/13 02:34:23;;;;;;;11.50;9.43;;;;;;;10.74;100.00;100947.69;5091834;28;20294;-50
2022/11/13 02:36:51;;;;;;;9.97;8.90;;;;;;;10.74;100.00;100944.22;5091493;28;20203;-51
2022/11/13 02:39:18;;;;;;;14.93;9.27;;;;;;;10.70;100.00;100938.22;5091359;28;20304;-51
2022/11/13 02:41:46;;;;;;;11.73;9.13;;;;;;;10.73;100.00;100950.28;5091320;28;20272;-51
2022/11/13 02:44:13;;;;;;;10.63;9.20;;;;;;;10.74;100.00;100950.28;5091273;28;20223;-51
2022/11/13 02:46:40;;;;;;;10.27;8.90;;;;;;;10.74;100.00;100950.28;5091181;28;20203;-51
2022/11/13 02:49:07;;;;;;;12.30;9.10;;;;;;;10.66;100.00;100952.06;5091708;28;20199;-51
2022/11/13 02:51:34;;;;;;;9.80;8.80;;;;;;;10.66;100.00;100946.00;5091115;28;20807;-51
2022/11/13 02:54:01;;;;;;;11.03;8.67;;;;;;;10.69;100.00;100949.47;5090998;28;20210;-50
2022/11/13 02:56:28;;;;;;;11.00;8.93;;;;;;;10.71;100.00;100945.13;5091459;28;20637;-50
2022/11/13 02:58:57;;;;;;;10.00;8.47;;;;;;;10.73;100.00;100948.56;5091244;28;20286;-53
2022/11/13 03:01:23;;;;;;;11.50;8.83;;;;;;;10.76;100.00;100951.13;5091063;28;20205;-52
2022/11/13 03:03:50;;;;;;;10.03;8.47;;;;;;;10.72;100.00;100930.41;5090870;28;20512;-53
2022/11/13 03:06:17;;;;;;;13.50;9.93;;;;;;;10.83;100.00;100945.06;5090839;28;20206;-51
2022/11/13 03:08:44;;;;;;;10.90;9.10;;;;;;;10.81;100.00;100954.59;5090738;28;20280;-51
2022/11/13 03:11:12;;;;;;;12.40;9.47;;;;;;;10.73;100.00;100943.34;5090590;28;20203;-49
2022/11/13 03:13:40;;;;;;;9.70;8.70;;;;;;;10.82;100.00;100945.91;5090938;28;20665;-51
2022/11/13 03:16:13;;;;;;;10.80;8.93;;;;;;;10.91;100.00;100944.97;5090757;28;20279;-50
2022/11/13 03:18:40;;;;;;;12.90;9.27;;;;;;;10.90;100.00;100935.47;5090514;28;20245;-50
2022/11/13 03:21:09;;;;;;;10.47;9.03;;;;;;;10.80;100.00;100947.66;5090295;28;20206;-50
2022/11/13 03:23:36;;;;;;;10.97;9.40;;;;;;;10.83;100.00;100939.84;5090566;28;20205;-50
2022/11/13 03:26:05;;;;;;;11.40;8.90;;;;;;;10.89;100.00;100945.00;5090562;28;20219;-49
2022/11/13 03:28:32;;;;;;;10.97;8.80;;;;;;;10.83;100.00;100929.47;5090667;28;20589;-50
2022/11/13 03:30:59;;;;;;;12.77;9.47;;;;;;;10.88;100.00;100937.19;5090429;28;20250;-48
2022/11/13 03:33:28;;;;;;;15.13;10.30;;;;;;;10.84;100.00;100932.88;5090269;28;20250;-51
2022/11/13 03:35:55;;;;;;;11.63;9.40;;;;;;;10.86;100.00;100937.22;5090338;28;20206;-52
2022/11/13 03:38:22;;;;;;;13.73;10.33;;;;;;;10.88;100.00;100942.41;5090447;28;20550;-51
2022/11/13 03:40:49;;;;;;;13.07;10.00;;;;;;;10.88;100.00;100940.66;5090136;28;20285;-52
2022/11/13 03:43:17;;;;;;;11.50;9.30;;;;;;;10.94;100.00;100941.50;5090270;28;20198;-52
2022/11/13 03:45:46;;;;;;;11.97;9.93;;;;;;;10.95;100.00;100932.84;5090562;28;20680;-51
2022/11/13 03:48:14;;;;;;;13.27;10.23;;;;;;;10.97;100.00;100942.31;5089943;28;20198;-49
2022/11/13 03:50:43;;;;;;;12.00;10.10;;;;;;;11.04;100.00;100938.81;5090016;28;20199;-52
2022/11/13 03:53:10;;;;;;;14.17;11.40;;;;;;;10.96;100.00;100937.13;5090307;28;20285;-52
2022/11/13 03:55:37;;;;;;;13.30;10.67;;;;;;;10.88;100.00;100919.88;5090076;28;20221;-50
2022/11/13 03:58:05;;;;;;;16.33;10.87;;;;;;;10.98;100.00;100941.44;5090009;28;20507;-50
2022/11/13 04:00:32;;;;;;;13.40;11.27;;;;;;;11.00;100.00;100938.84;5090471;28;20553;-50
2022/11/13 04:02:59;;;;;;;12.73;10.40;;;;;;;10.95;100.00;100938.88;5090151;28;20618;-51
2022/11/13 04:05:26;;;;;;;10.97;8.83;;;;;;;10.92;100.00;100933.72;5089730;28;20222;-51
2022/11/13 04:07:54;;;;;;;15.13;9.73;;;;;;;10.84;100.00;100930.28;5089775;28;20202;-50
2022/11/13 04:10:21;;;;;;;10.70;9.47;;;;;;;10.83;100.00;100929.47;5089808;28;20561;-52
2022/11/13 04:12:48;;;;;;;11.50;10.30;;;;;;;10.81;100.00;100933.81;5089635;28;20191;-50
2022/11/13 04:15:15;;;;;;;15.40;10.97;;;;;;;10.77;100.00;100933.81;5089885;28;20242;-52
2022/11/13 04:17:42;;;;;;;16.33;11.43;;;;;;;10.75;100.00;100926.03;5089807;28;20235;-51
2022/11/13 04:20:09;;;;;;;17.47;11.50;;;;;;;10.82;100.00;100938.13;5089821;28;20655;-51
2022/11/13 04:22:36;;;;;;;18.30;11.27;;;;;;;10.80;100.00;100939.00;5073196;28;20254;-49
2022/11/13 04:25:05;;;;;;;14.43;11.33;;;;;;;10.73;100.00;100929.50;5068844;28;20802;-49
2022/11/13 04:27:32;;;;;;;14.47;11.50;;;;;;;10.77;100.00;100939.00;5068792;28;20223;-50
2022/11/13 04:29:59;;;;;;;13.87;10.50;;;;;;;10.74;100.00;100949.41;5068493;28;20772;-50
2022/11/13 04:32:26;;;;;;;13.77;11.10;;;;;;;10.72;100.00;100952.00;5068280;28;20247;-50
2022/11/13 04:34:53;;;;;;;19.70;11.83;;;;;;;10.72;100.00;100941.63;5070863;28;20251;-50
2022/11/13 04:37:20;;;;;;;13.40;10.97;;;;;;;10.74;100.00;100950.28;5088890;28;20695;-48
2022/11/13 04:39:47;;;;;;;15.77;11.53;;;;;;;10.80;100.00;100949.38;5088479;28;20648;-50
2022/11/13 04:45:00;;;;;;;15.23;11.93;;;;;;;10.72;100.00;100941.63;5089830;28;20597;-51
2022/11/13 04:47:27;;;;;;;15.80;11.87;;;;;;;10.79;100.00;100943.34;5089946;28;20238;-51
2022/11/13 04:49:54;;;;;;;14.37;11.87;;;;;;;10.88;100.00;100953.66;5089765;28;20193;-50
2022/11/13 04:52:21;;;;;;;17.40;11.80;;;;;;;10.96;100.00;100963.13;5089742;28;20312;-51
2022/11/13 04:54:47;;;;;;;15.50;12.30;;;;;;;10.88;100.00;100958.84;5089340;28;20194;-52
2022/11/13 04:57:16;;;;;;;20.40;12.97;;;;;;;10.87;100.00;100957.13;5089909;28;20195;-52
2022/11/13 04:59:43;;;;;;;21.20;14.20;;;;;;;10.85;100.00;100953.66;5090123;28;20221;-51
2022/11/13 05:02:10;;;;;;;22.90;15.13;;;;;;;10.87;100.00;100954.53;5089029;28;20608;-51
2022/11/13 05:04:36;;;;;;;22.30;15.13;;;;;;;10.80;100.00;100954.59;5089824;28;20223;-51
2022/11/13 05:07:04;;;;;;;21.63;15.27;;;;;;;10.80;100.00;100955.44;5089002;28;20200;-50
2022/11/13 05:09:30;;;;;;;23.70;16.40;;;;;;;10.82;100.00;100958.91;5088083;28;20215;-52
2022/11/13 05:11:57;;;;;;;24.43;16.27;;;;;;;10.57;100.00;100954.72;5087949;28;20200;-49
2022/11/13 05:14:26;;;;;;;25.10;17.30;;;;;;;10.64;100.00;100953.81;5088621;28;20191;-49
2022/11/13 05:16:52;;;;;;;26.53;18.10;;;;;;;10.79;100.00;100952.84;5087936;28;20196;-50
2022/11/13 05:19:19;;;;;;;32.33;21.37;;;;;;;10.72;100.00;100946.81;5087925;28;20196;-50
2022/11/13 05:21:46;;;;;;;38.77;23.60;;;;;;;10.84;100.00;100953.66;5086778;28;20191;-52
2022/11/13 05:24:13;;;;;;;35.83;23.73;;;;;;;10.86;100.00;100955.41;5088846;28;20632;-51
2022/11/13 05:26:40;;;;;;;37.80;25.17;;;;;;;10.71;100.00;100958.13;5089411;28;20226;-49
2022/11/13 05:29:07;;;;;;;44.13;27.27;;;;;;;10.74;100.00;100952.88;5088303;28;20282;-50
2022/11/13 05:31:36;;;;;;;42.43;27.90;;;;;;;10.73;100.00;100958.94;5087616;28;20345;-50
2022/11/13 05:34:04;;;;;;;40.03;28.03;;;;;;;10.72;100.00;100951.19;5087567;28;20658;-50
2022/11/13 05:36:31;;;;;;;45.03;28.67;;;;;;;10.56;100.00;100960.78;5085333;28;20652;-50
2022/11/13 05:38:58;;;;;;;45.23;28.50;;;;;;;10.60;100.00;100956.47;5087665;28;20258;-50
2022/11/13 05:41:25;;;;;;;47.53;29.13;;;;;;;10.51;100.00;100942.63;5087426;28;20206;-51
2022/11/13 05:43:53;;;;;;;40.97;27.23;;;;;;;10.64;100.00;100959.00;5087389;28;20200;-51
2022/11/13 05:46:22;;;;;;;46.33;28.10;;;;;;;10.55;100.00;100959.06;5090871;28;20215;-51
2022/11/13 05:48:53;;;;;;;44.03;29.43;;;;;;;10.61;100.00;100965.97;5090958;28;20198;-49
2022/11/13 05:51:22;;;;;;;38.13;25.80;;;;;;;10.71;100.00;100967.63;5091030;28;20205;-48
2022/11/13 05:53:49;;;;;;;38.17;23.83;;;;;;;10.68;100.00;100960.72;5088596;28;20572;-51
2022/11/13 05:56:18;;;;;;;34.47;23.73;;;;;;;10.80;100.00;100965.84;5091226;28;20187;-51
2022/11/13 05:58:46;;;;;;;34.93;22.90;;;;;;;10.86;100.00;100954.53;5091306;28;20195;-51
2022/11/13 06:01:15;;;;;;;31.87;21.90;;;;;;;10.93;100.00;100974.41;5091599;28;20195;-50
2022/11/13 06:03:43;;;;;;;34.13;22.00;;;;;;;10.95;100.00;100979.59;5092654;28;20661;-52
2022/11/13 06:06:13;;;;;;;36.23;24.47;;;;;;;11.03;100.00;100973.47;5092032;28;20230;-50
2022/11/13 06:08:40;;;;;;;33.73;20.67;;;;;;;11.11;100.00;100981.19;5092914;28;20207;-51
2022/11/13 06:11:10;;;;;;;25.47;17.63;;;;;;;11.25;100.00;100976.75;5092794;28;20199;-50
2022/11/13 06:13:37;;;;;;;25.10;16.80;;;;;;;11.42;100.00;100961.88;5092658;28;20676;-51
2022/11/13 06:16:07;;;;;;;21.53;15.40;;;;;;;11.69;100.00;100984.16;5092611;28;20203;-52
2022/11/13 06:18:35;;;;;;;18.60;12.77;;;;;;;11.85;100.00;100984.91;5092196;28;20231;-52
2022/11/13 06:21:02;;;;;;;17.23;12.87;;;;;;;12.10;100.00;100983.72;5092442;28;20242;-51
2022/11/13 06:23:33;;;;;;;20.37;14.30;;;;;;;12.17;100.00;100974.13;5091848;28;20199;-51
2022/11/13 06:26:01;;;;;;;18.07;13.87;;;;;;;12.23;100.00;100990.53;5091250;28;20225;-51
2022/11/13 06:28:28;;;;;;;19.87;13.47;;;;;;;12.26;100.00;100984.44;5090106;28;20196;-50
2022/11/13 06:30:55;;;;;;;16.93;13.20;;;;;;;12.27;100.00;100989.63;5087442;28;20203;-51
2022/11/13 06:33:22;;;;;;;19.43;14.03;;;;;;;12.23;100.00;100994.88;5090575;28;20681;-50
2022/11/13 06:35:49;;;;;;;18.30;13.60;;;;;;;12.15;100.00;100994.97;5088710;28;20245;-49
2022/11/13 06:38:16;;;;;;;20.57;14.70;;;;;;;12.17;100.00;100995.81;5088708;28;20294;-51
2022/11/13 06:40:44;;;;;;;18.77;14.03;;;;;;;12.29;100.00;100994.81;5087858;28;20245;-51
2022/11/13 06:43:11;;;;;;;23.87;14.57;;;;;;;12.52;100.00;100997.13;5088762;28;20219;-51
2022/11/13 06:45:38;;;;;;;17.13;13.63;;;;;;;12.68;100.00;100993.41;5089645;28;20219;-49
2022/11/13 06:48:05;;;;;;;17.90;13.10;;;;;;;12.86;100.00;100990.56;5089126;28;20237;-51
2022/11/13 06:50:32;;;;;;;17.13;13.57;;;;;;;12.84;100.00;100987.13;5089508;28;20235;-50
2022/11/13 06:52:59;;;;;;;16.60;12.40;;;;;;;12.76;100.00;100991.56;5088742;28;20281;-51
2022/11/13 06:55:26;;;;;;;15.30;12.50;;;;;;;12.67;100.00;100982.13;5088769;28;20201;-51
2022/11/13 06:57:55;;;;;;;16.50;13.10;;;;;;;12.68;100.00;100977.78;5088496;28;20669;-51
2022/11/13 07:00:22;;;;;;;14.83;12.60;;;;;;;12.75;100.00;100989.00;5088065;28;20290;-51
2022/11/13 07:02:50;;;;;;;13.13;11.83;;;;;;;12.77;100.00;100982.84;5086673;28;20199;-50
2022/11/13 07:05:17;;;;;;;14.27;11.57;;;;;;;12.85;100.00;100985.38;5089645;28;20679;-50
2022/11/13 07:07:44;;;;;;;11.07;9.90;;;;;;;12.81;100.00;100981.06;5089580;28;20594;-50
2022/11/13 07:10:11;;;;;;;15.03;9.73;;;;;;;12.86;100.00;100985.34;5089249;28;20279;-50
2022/11/13 07:12:38;;;;;;;17.33;10.93;;;;;;;12.79;100.00;100964.59;5089482;28;20192;-52
2022/11/13 07:15:07;;;;;;;13.83;11.00;;;;;;;12.89;100.00;100976.59;5089546;28;20199;-50
2022/11/13 07:17:34;;;;;;;15.77;13.20;;;;;;;12.81;100.00;100970.66;5090460;28;20318;-50
2022/11/13 07:20:01;;;;;;;14.47;12.10;;;;;;;12.78;100.00;100973.28;5090778;28;20277;-49
2022/11/13 07:22:28;;;;;;;15.67;12.23;;;;;;;12.82;100.00;100970.63;5090229;28;20278;-50
2022/11/13 07:24:55;;;;;;;14.43;12.13;;;;;;;12.99;100.00;100970.38;5088953;28;20195;-50
2022/11/13 07:27:22;;;;;;;16.23;13.73;;;;;;;13.01;100.00;100969.47;5089414;28;20278;-50
2022/11/13 07:29:49;;;;;;;20.70;15.77;;;;;;;13.12;100.00;100961.47;5089810;28;20600;-50
2022/11/13 07:32:18;;;;;;;20.20;14.27;;;;;;;13.07;100.00;100956.34;5089803;28;20238;-48
2022/11/13 07:34:44;;;;;;;19.07;16.30;;;;;;;13.14;100.00;100964.06;5069734;28;20219;-51
2022/11/13 07:37:11;;;;;;;25.30;16.10;;;;;;;13.27;100.00;100968.22;5069863;28;20202;-50
2022/11/13 07:39:38;;;;;;;21.23;15.77;;;;;;;13.33;100.00;100963.75;5069554;28;20222;-51
2022/11/13 07:42:06;;;;;;;20.10;15.80;;;;;;;13.45;100.00;100958.34;5069185;28;20307;-52
2022/11/13 07:44:33;;;;;;;17.17;14.23;;;;;;;13.58;100.00;100958.13;5086359;28;20276;-50
2022/11/13 07:47:00;;;;;;;13.80;12.10;;;;;;;13.74;100.00;100970.88;5087682;28;20223;-50
2022/11/13 07:49:28;;;;;;;14.97;12.87;;;;;;;13.81;100.00;100967.25;5089457;28;20586;-51
2022/11/13 07:51:55;;;;;;;17.87;12.97;;;;;;;13.97;100.00;100973.03;5088756;28;20373;-50
2022/11/13 07:54:22;;;;;;;18.50;13.07;;;;;;;13.90;100.00;100970.56;5090065;28;20195;-50
2022/11/13 07:56:49;;;;;;;17.43;13.70;;;;;;;14.01;100.00;100959.03;5090304;28;20586;-52
2022/11/13 07:59:16;;;;;;;18.43;13.67;;;;;;;14.14;100.00;100968.34;5090059;28;20195;-50
2022/11/13 08:01:43;;;;;;;17.33;12.93;;;;;;;14.29;100.00;100966.31;5090111;28;20652;-52
2022/11/13 08:04:10;;;;;;;21.37;14.10;;;;;;;14.25;100.00;100973.34;5089937;28;20199;-51
2022/11/13 08:06:38;;;;;;;16.30;13.67;;;;;;;14.47;100.00;100969.41;5089409;28;20722;-51
2022/11/13 08:09:06;;;;;;;16.40;13.07;;;;;;;14.50;100.00;100961.50;5089224;28;20203;-51
2022/11/13 08:11:32;;;;;;;17.50;14.23;;;;;;;14.48;100.00;100963.28;5089849;28;20268;-50
2022/11/13 08:13:59;;;;;;;18.27;14.40;;;;;;;14.62;100.00;100964.75;5089806;28;20726;-50
2022/11/13 08:16:26;;;;;;;20.10;15.33;;;;;;;14.72;100.00;100969.72;5088631;28;20192;-50
2022/11/13 08:18:54;;;;;;;33.93;22.57;;;;;;;14.66;100.00;100967.28;5088068;28;20342;-51
2022/11/13 08:21:21;;;;;;;24.37;17.13;;;;;;;14.60;100.00;100976.97;5088032;28;20588;-50
2022/11/13 08:23:50;;;;;;;21.37;15.83;;;;;;;14.60;100.00;100972.63;5088287;28;20209;-54
2022/11/13 08:26:17;;;;;;;15.73;13.77;;;;;;;14.52;100.00;100970.19;5088511;28;20219;-51
2022/11/13 08:28:45;;;;;;;24.37;18.37;;;;;;;14.61;100.00;100970.88;5088731;28;20202;-51
2022/11/13 08:31:13;;;;;;;21.97;17.47;;;;;;;14.56;100.00;100968.34;5089034;28;20203;-51
2022/11/13 08:33:40;;;;;;;19.13;15.43;;;;;;;14.53;100.00;100966.69;5088877;28;20209;-52
2022/11/13 08:36:08;;;;;;;17.03;14.10;;;;;;;14.30;100.00;100961.06;5089414;28;20213;-52
2022/11/13 08:38:35;;;;;;;21.03;14.63;;;;;;;14.56;100.00;100972.75;5089097;28;20195;-51
2022/11/13 08:41:06;;;;;;;18.23;14.27;;;;;;;14.61;100.00;100961.28;5089423;28;20205;-51
2022/11/13 08:43:33;;;;;;;18.67;14.37;;;;;;;14.59;100.00;100959.56;5089328;28;20226;-51
2022/11/13 08:46:00;;;;;;;17.23;13.80;;;;;;;14.61;100.00;100965.63;5088883;28;20233;-51
2022/11/13 08:48:27;;;;;;;18.07;14.77;;;;;;;14.67;100.00;100960.28;5089116;28;20203;-50
2022/11/13 08:50:55;;;;;;;16.13;13.93;;;;;;;14.75;100.00;100966.19;5089480;28;20202;-51
2022/11/13 08:53:23;;;;;;;23.83;16.70;;;;;;;14.68;100.00;100968.06;5089603;28;20199;-50
2022/11/13 08:55:49;;;;;;;19.70;15.13;;;;;;;14.61;100.00;100969.13;5089402;28;20199;-50
2022/11/13 08:58:18;;;;;;;18.20;14.80;;;;;;;14.65;100.00;100968.16;5089476;28;20191;-52
2022/11/13 09:00:45;;;;;;;20.27;15.70;;;;;;;14.62;100.00;100967.34;5088746;28;20590;-52
2022/11/13 09:03:12;;;;;;;21.80;15.07;;;;;;;14.38;100.00;100969.56;5089433;28;20605;-53
2022/11/13 09:05:39;;;;;;;18.07;15.63;;;;;;;14.16;100.00;100960.47;5088947;28;20195;-53
2022/11/13 09:08:06;;;;;;;21.10;15.63;;;;;;;14.19;100.00;100965.63;5084499;28;20233;-53
2022/11/13 09:10:33;;;;;;;21.20;16.10;;;;;;;14.29;100.00;100959.31;5087619;28;20191;-53
2022/11/13 09:13:01;;;;;;;19.23;15.70;;;;;;;14.29;100.00;100966.31;5087898;28;20290;-54
2022/11/13 09:15:30;;;;;;;22.37;17.13;;;;;;;14.10;100.00;100953.63;5088120;28;20192;-54
2022/11/13 09:17:58;;;;;;;24.57;17.83;;;;;;;14.07;100.00;100942.38;5088874;28;20237;-53
2022/11/13 09:20:25;;;;;;;25.50;18.37;;;;;;;14.33;100.00;100944.47;5092917;28;20205;-53
2022/11/13 09:22:57;;;;;;;22.00;16.67;;;;;;;14.40;100.00;100936.47;5092855;28;20199;-53
2022/11/13 09:25:24;;;;;;;22.20;17.30;;;;;;;14.48;100.00;100942.38;5092895;28;20205;-53
2022/11/13 09:27:55;;;;;;;21.67;16.83;;;;;;;14.67;100.00;100915.88;5092595;28;20219;-53
2022/11/13 09:30:23;;;;;;;22.43;17.60;;;;;;;14.90;100.00;100934.44;5092698;28;20191;-53
2022/11/13 09:32:55;;;;;;;25.20;18.17;;;;;;;15.20;100.00;100936.34;5092807;28;20203;-53
2022/11/13 09:35:33;;;;;;;27.13;18.53;;;;;;;15.50;100.00;100933.81;5092811;28;20203;-53
2022/11/13 09:38:01;;;;;;;21.70;16.90;;;;;;;15.50;100.00;100932.06;5092618;28;20206;-53
2022/11/13 09:40:32;;;;;;;26.10;17.67;;;;;;;15.49;100.00;100924.25;5092581;28;20468;-53
2022/11/13 09:43:01;;;;;;;27.03;19.00;;;;;;;15.59;100.00;100917.91;5092456;28;20199;-53
2022/11/13 09:45:30;;;;;;;27.37;19.33;;;;;;;15.71;100.00;100919.31;5092394;28;20195;-54
2022/11/13 09:48:12;;;;;;;24.90;18.23;;;;;;;15.64;100.00;100916.03;5092302;28;20223;-54
2022/11/13 09:50:40;;;;;;;26.63;18.73;;;;;;;15.68;100.00;100912.44;5092875;28;20195;-54
2022/11/13 09:53:07;;;;;;;24.63;17.77;;;;;;;15.69;100.00;100902.81;5092543;28;20236;-53
2022/11/13 09:55:41;;;;;;;23.60;16.97;;;;;;;15.58;100.00;100897.84;5092429;28;20195;-52
2022/11/13 09:58:14;;;;;;;22.93;16.87;;;;;;;15.07;100.00;100885.22;5086703;28;20282;-53
2022/11/13 10:00:41;;;;;;;26.17;17.30;;;;;;;15.25;100.00;100900.44;5092209;28;20597;-53
2022/11/13 10:03:31;;;;;;;26.87;17.23;;;;;;;15.14;100.00;100902.47;5092086;28;20199;-53
2022/11/13 10:06:04;;;;;;;22.23;16.27;;;;;;;15.20;100.00;100899.72;5092147;28;20192;-53
2022/11/13 10:08:38;;;;;;;26.17;17.60;;;;;;;15.05;100.00;100904.47;5092135;28;20202;-52
2022/11/13 10:11:11;;;;;;;21.87;16.57;;;;;;;14.98;100.00;100903.78;5092039;28;20203;-53
2022/11/13 10:13:43;;;;;;;20.17;16.13;;;;;;;15.04;100.00;100897.50;5091904;28;20191;-52
2022/11/13 10:16:29;;;;;;;21.93;16.63;;;;;;;15.14;100.00;100894.63;5092097;28;20201;-52
2022/11/13 10:19:05;;;;;;;21.93;16.87;;;;;;;15.35;100.00;100898.44;5091694;28;20233;-53
2022/11/13 10:21:39;;;;;;;21.13;16.00;;;;;;;15.56;100.00;100897.06;5091746;28;20195;-53
2022/11/13 10:24:17;;;;;;;21.53;16.33;;;;;;;15.51;100.00;100870.97;5090839;28;20248;-53
2022/11/13 10:26:44;;;;;;;20.33;16.40;;;;;;;15.62;100.00;100886.41;5091773;28;20759;-52
2022/11/13 10:29:14;;;;;;;21.97;16.00;;;;;;;15.69;100.00;100887.94;5091831;28;20191;-57
2022/11/13 10:31:43;;;;;;;23.13;16.17;;;;;;;15.77;100.00;100874.66;5090778;28;20202;-57
2022/11/13 10:34:12;;;;;;;22.73;16.30;;;;;;;15.48;100.00;100881.50;5091398;28;20282;-57
2022/11/13 10:36:47;;;;;;;23.27;17.63;;;;;;;15.49;100.00;100877.13;5091549;28;20191;-53
2022/11/13 10:39:14;;;;;;;23.23;16.83;;;;;;;15.59;100.00;100865.56;5091439;28;20241;-53
2022/11/13 10:41:49;;;;;;;22.70;17.83;;;;;;;15.78;100.00;100864.16;5090308;28;20196;-53
2022/11/13 10:44:24;;;;;;;20.67;16.73;;;;;;;15.71;100.00;100843.41;5091214;28;20190;-53
2022/11/13 10:46:51;;;;;;;22.03;16.53;;;;;;;15.64;100.00;100853.22;5091427;28;20221;-57
2022/11/13 10:49:21;;;;;;;21.87;16.97;;;;;;;15.58;100.00;100855.97;5091325;28;20206;-59
2022/11/13 10:51:56;;;;;;;27.33;15.33;;;;;;;15.47;100.00;100860.63;5091362;28;20282;-57
2022/11/13 10:54:25;;;;;;;17.33;15.10;;;;;;;15.46;100.00;100851.91;5091480;28;20633;-57
2022/11/13 10:57:00;;;;;;;16.87;15.17;;;;;;;15.38;100.00;100850.41;5091322;28;20198;-58
2022/11/13 10:59:38;;;;;;;19.53;14.03;;;;;;;15.47;100.00;100847.53;5090937;28;20198;-56
2022/11/13 11:02:19;;;;;;;22.77;14.70;;;;;;;15.47;100.00;100847.53;5091565;28;20682;-56
2022/11/13 11:04:47;;;;;;;21.87;15.43;;;;;;;15.53;100.00;100836.91;5091007;28;20251;-57
2022/11/13 11:07:17;;;;;;;18.03;15.30;;;;;;;15.46;100.00;100806.59;5091001;28;20231;-58
2022/11/13 11:09:45;;;;;;;23.77;16.10;;;;;;;15.66;100.00;100825.22;5090714;28;20195;-58
2022/11/13 11:12:22;;;;;;;18.27;14.43;;;;;;;15.74;100.00;100823.25;5086306;28;20669;-58